Time;durP1;ratioP1;P1;durP2;ratioP2;P2;SDS_P1;SDS_P2;PMS_P1;PMS_P2;Temp;Humidity;BMP_temperature;BMP_pressure;BME280_temperature;BME280_humidity;BME280_pressure;Samples;Min_cycle;Max_cycle;Signal;HPM_P1;HPM_P2
2022/11/10 00:02:21;;;;;;;57.40;51.70;;;;;;;5.97;100.00;98020.54;102828;1317;22543;-86
2022/11/10 00:05:09;;;;;;;58.20;52.20;;;;;;;5.99;100.00;98017.92;102755;1303;24299;-88
2022/11/10 00:08:03;;;;;;;55.80;50.70;;;;;;;6.02;100.00;98022.48;102633;1315;24281;-86
2022/11/10 00:10:56;;;;;;;58.20;52.80;;;;;;;6.04;100.00;98026.59;102579;1315;22470;-86
2022/11/10 00:17:03;;;;;;;55.60;50.40;;;;;;;6.04;100.00;98022.31;102995;1315;22506;-87
2022/11/10 00:19:50;;;;;;;54.40;49.30;;;;;;;6.02;100.00;98026.32;102825;1318;22525;-88
2022/11/10 00:22:38;;;;;;;54.90;49.30;;;;;;;6.01;99.87;98026.00;102942;1302;22484;-89
2022/11/10 00:25:26;;;;;;;56.20;50.90;;;;;;;6.03;100.00;98028.95;103174;1294;24272;-87
2022/11/10 00:28:13;;;;;;;58.60;53.20;;;;;;;6.04;100.00;98028.25;102712;1315;22488;-87
2022/11/10 00:31:04;;;;;;;56.20;50.50;;;;;;;6.03;100.00;98024.56;103075;1310;22518;-87
2022/11/10 00:33:51;;;;;;;54.60;49.20;;;;;;;6.03;99.98;98024.45;103144;1315;22313;-86
2022/11/10 00:36:38;;;;;;;57.50;52.00;;;;;;;6.02;99.90;98033.55;102879;1318;25412;-90
2022/11/10 00:39:25;;;;;;;58.50;52.60;;;;;;;6.02;99.80;98031.83;102795;1303;22501;-87
2022/11/10 00:42:11;;;;;;;56.20;50.70;;;;;;;6.00;99.76;98033.17;102664;1317;22492;-82
2022/11/10 00:44:58;;;;;;;56.10;50.50;;;;;;;5.98;99.95;98037.30;103083;1302;22608;-87
2022/11/10 00:47:45;;;;;;;58.00;52.10;;;;;;;5.95;99.95;98038.93;103538;1300;25391;-86
2022/11/10 00:50:32;;;;;;;60.70;54.50;;;;;;;5.96;99.96;98031.02;102990;1308;22522;-87
2022/11/10 00:53:19;;;;;;;54.40;49.10;;;;;;;5.96;99.56;98029.42;103239;1300;25293;-86
2022/11/10 00:56:06;;;;;;;54.60;49.40;;;;;;;5.96;99.83;98031.88;103287;1299;25594;-86
2022/11/10 00:58:53;;;;;;;52.80;47.60;;;;;;;5.94;100.00;98033.69;102916;1301;22501;-86
2022/11/10 01:01:39;;;;;;;50.00;45.30;;;;;;;5.90;100.00;98029.23;102519;1300;22470;-83
2022/11/10 01:04:26;;;;;;;50.00;45.30;;;;;;;5.89;100.00;98024.89;102773;1294;25233;-84
2022/11/10 01:07:12;;;;;;;50.60;45.80;;;;;;;5.90;100.00;98032.54;102902;1301;22581;-85
2022/11/10 01:09:59;;;;;;;48.20;43.60;;;;;;;5.92;100.00;98030.23;102969;1316;23421;-82
2022/11/10 01:12:45;;;;;;;51.30;46.30;;;;;;;5.95;100.00;98038.24;102992;1318;23438;-85
2022/11/10 01:15:32;;;;;;;51.80;47.10;;;;;;;5.97;100.00;98040.70;102763;1316;22604;-85
2022/11/10 01:18:19;;;;;;;53.20;48.10;;;;;;;5.95;100.00;98042.36;102340;1302;25375;-82
2022/11/10 01:21:07;;;;;;;51.90;46.90;;;;;;;5.92;100.00;98046.77;102796;1316;22928;-87
2022/11/10 01:23:54;;;;;;;51.60;46.50;;;;;;;5.93;100.00;98053.10;102626;1312;22624;-86
2022/11/10 01:26:41;;;;;;;49.60;44.70;;;;;;;5.94;100.00;98055.57;103034;1315;24355;-86
2022/11/10 01:29:27;;;;;;;56.10;50.80;;;;;;;5.88;99.84;98058.05;102777;1317;25007;-86
2022/11/10 01:32:14;;;;;;;53.50;48.60;;;;;;;5.85;100.00;98058.05;102944;1293;22486;-86
2022/11/10 01:35:00;;;;;;;59.10;53.50;;;;;;;5.78;99.44;98059.78;102965;1307;23386;-87
2022/11/10 01:37:46;;;;;;;57.20;51.70;;;;;;;5.73;100.00;98062.02;102785;1316;24391;-83
2022/11/10 01:40:33;;;;;;;48.50;43.50;;;;;;;5.70;99.97;98064.73;102807;1318;24277;-83
2022/11/10 01:43:20;;;;;;;49.30;44.60;;;;;;;5.67;99.73;98067.93;102500;1301;22751;-84
2022/11/10 01:46:10;;;;;;;52.10;47.10;;;;;;;5.62;99.73;98067.81;102466;1303;23243;-83
2022/11/10 01:49:00;;;;;;;54.00;49.00;;;;;;;5.62;99.97;98071.66;102689;1315;24469;-81
2022/11/10 01:52:08;;;;;;;53.80;48.60;;;;;;;5.68;100.00;98068.36;102365;1300;22722;-84
2022/11/10 01:54:55;;;;;;;52.80;47.70;;;;;;;5.67;100.00;98073.13;102633;1315;25409;-85
2022/11/10 01:57:42;;;;;;;52.20;47.10;;;;;;;5.69;100.00;98075.67;102326;1315;22699;-84
2022/11/10 02:00:28;;;;;;;49.70;44.90;;;;;;;5.73;100.00;98081.96;102642;1315;22624;-83
2022/11/10 02:03:31;;;;;;;51.40;46.50;;;;;;;5.78;100.00;98085.66;102980;1315;24327;-85
2022/11/10 02:06:21;;;;;;;52.30;47.10;;;;;;;5.79;100.00;98083.91;102811;1317;22486;-84
2022/11/10 02:09:08;;;;;;;54.90;49.40;;;;;;;5.78;100.00;98082.45;102720;1299;25476;-84
2022/11/10 02:11:55;;;;;;;51.80;46.50;;;;;;;5.78;100.00;98083.31;102864;1316;24370;-84
2022/11/10 02:14:42;;;;;;;50.10;45.20;;;;;;;5.78;100.00;98086.58;102782;1318;22609;-83
2022/11/10 02:17:29;;;;;;;49.30;44.50;;;;;;;5.81;100.00;98093.70;102510;1315;25699;-87
2022/11/10 02:20:19;;;;;;;55.40;50.00;;;;;;;5.86;100.00;98101.63;102936;1299;22606;-87
2022/11/10 02:23:11;;;;;;;51.80;46.60;;;;;;;5.90;100.00;98107.52;102743;1315;24216;-85
2022/11/10 02:25:57;;;;;;;52.30;47.30;;;;;;;5.94;100.00;98109.00;102616;1301;267318;-84
2022/11/10 02:28:44;;;;;;;57.00;51.60;;;;;;;5.95;100.00;98103.52;102707;1315;25683;-83
2022/11/10 02:31:31;;;;;;;54.70;49.20;;;;;;;5.95;100.00;98101.90;102606;1295;22529;-84
2022/11/10 02:34:18;;;;;;;57.10;51.70;;;;;;;5.99;100.00;98097.69;102747;1315;26006;-85
2022/11/10 02:37:05;;;;;;;57.30;52.00;;;;;;;6.04;100.00;98101.51;102847;1316;24414;-84
2022/11/10 02:39:51;;;;;;;54.60;49.40;;;;;;;6.05;100.00;98099.73;102634;1304;22691;-84
2022/11/10 02:42:38;;;;;;;56.00;50.20;;;;;;;6.04;100.00;98100.48;102698;1315;22604;-82
2022/11/10 02:45:25;;;;;;;57.00;51.40;;;;;;;6.03;100.00;98102.66;102690;1293;24080;-85
2022/11/10 02:48:14;;;;;;;53.60;48.30;;;;;;;6.03;100.00;98103.85;102748;1310;23863;-84
2022/11/10 02:51:00;;;;;;;53.60;48.40;;;;;;;6.06;100.00;98103.52;103060;1316;25409;-85
2022/11/10 02:53:48;;;;;;;53.30;48.20;;;;;;;6.08;100.00;98108.98;102856;1315;25383;-87
2022/11/10 02:56:35;;;;;;;54.90;49.40;;;;;;;6.08;100.00;98108.62;102999;1315;22636;-84
2022/11/10 02:59:21;;;;;;;55.20;49.70;;;;;;;6.04;100.00;98107.21;103068;1315;22572;-87
2022/11/10 03:02:08;;;;;;;53.20;48.20;;;;;;;6.01;100.00;98113.31;102618;1311;22513;-88
2022/11/10 03:04:54;;;;;;;51.90;46.90;;;;;;;6.02;100.00;98110.46;103047;1293;22523;-85
2022/11/10 03:07:41;;;;;;;54.10;48.70;;;;;;;6.04;100.00;98111.50;102982;1315;22629;-85
2022/11/10 03:10:29;;;;;;;52.80;47.60;;;;;;;6.03;100.00;98111.06;102783;1315;22976;-89
2022/11/10 03:13:16;;;;;;;51.30;46.30;;;;;;;6.03;100.00;98114.45;103036;1309;24213;-86
2022/11/10 03:16:02;;;;;;;49.10;44.40;;;;;;;6.00;100.00;98123.52;102765;1315;22486;-86
2022/11/10 03:18:49;;;;;;;48.50;43.80;;;;;;;6.00;100.00;98129.09;102758;1315;22531;-88
2022/11/10 03:21:36;;;;;;;49.30;44.70;;;;;;;6.04;100.00;98128.46;102608;1301;22604;-84
2022/11/10 03:24:23;;;;;;;49.80;44.80;;;;;;;6.06;100.00;98128.79;102859;1316;24458;-86
2022/11/10 03:27:09;;;;;;;52.20;47.30;;;;;;;6.10;100.00;98135.48;103703;1302;22610;-88
2022/11/10 03:29:56;;;;;;;56.70;51.00;;;;;;;6.14;100.00;98139.61;103740;1309;23718;-88
2022/11/10 03:32:43;;;;;;;51.70;46.90;;;;;;;6.18;100.00;98141.07;102903;1314;22493;-85
2022/11/10 03:35:29;;;;;;;49.70;44.80;;;;;;;6.21;100.00;98139.21;102484;1315;24142;-85
2022/11/10 03:38:16;;;;;;;47.10;42.60;;;;;;;6.24;100.00;98138.46;102742;1293;22599;-85
2022/11/10 03:41:02;;;;;;;44.40;40.30;;;;;;;6.30;100.00;98138.86;102332;1311;25330;-85
2022/11/10 03:44:05;;;;;;;50.10;45.40;;;;;;;6.36;100.00;98141.96;102378;1315;22559;-85
2022/11/10 03:46:52;;;;;;;48.30;43.80;;;;;;;6.40;100.00;98143.64;102594;1315;23427;-86
2022/11/10 03:49:38;;;;;;;53.10;47.80;;;;;;;6.37;100.00;98148.02;102605;1315;22544;-86
2022/11/10 03:52:25;;;;;;;51.50;46.30;;;;;;;6.36;100.00;98145.45;103007;1307;22867;-84
2022/11/10 03:55:15;;;;;;;50.00;45.20;;;;;;;6.43;100.00;98148.66;102827;1314;22525;-85
2022/11/10 03:58:03;;;;;;;51.70;46.60;;;;;;;6.46;100.00;98152.21;102310;1299;22478;-86
2022/11/10 04:00:52;;;;;;;50.80;46.00;;;;;;;6.47;100.00;98153.31;102509;1312;22534;-84
2022/11/10 04:03:38;;;;;;;49.20;44.50;;;;;;;6.50;100.00;98155.27;102066;1296;22518;-85
2022/11/10 04:09:31;;;;;;;49.30;44.00;;;;;;;6.63;100.00;98147.67;102575;1315;22490;-86
2022/11/10 04:15:42;;;;;;;57.00;51.60;;;;;;;6.72;100.00;98155.45;102167;1315;22690;-85
2022/11/10 04:18:28;;;;;;;53.50;48.30;;;;;;;6.70;100.00;98150.36;102268;1306;22658;-85
2022/11/10 04:21:15;;;;;;;53.40;48.20;;;;;;;6.72;100.00;98146.23;102627;1300;22682;-84
2022/11/10 04:24:02;;;;;;;49.30;44.60;;;;;;;6.76;100.00;98149.98;102190;1315;22488;-86
2022/11/10 04:26:48;;;;;;;52.40;47.50;;;;;;;6.78;100.00;98151.21;103004;1315;22497;-85
2022/11/10 04:29:35;;;;;;;52.90;47.90;;;;;;;6.76;100.00;98152.77;102756;1315;25345;-84
2022/11/10 04:32:22;;;;;;;51.40;46.50;;;;;;;6.75;100.00;98150.09;102682;1317;22570;-85
2022/11/10 04:35:08;;;;;;;51.10;46.30;;;;;;;6.75;100.00;98154.75;103000;1297;23089;-86
2022/11/10 04:37:55;;;;;;;49.20;44.60;;;;;;;6.75;100.00;98164.13;103289;1315;25283;-84
2022/11/10 04:40:42;;;;;;;52.80;47.50;;;;;;;6.77;100.00;98166.48;102779;1309;22497;-86
2022/11/10 04:43:29;;;;;;;50.40;45.90;;;;;;;6.81;100.00;98166.70;102405;1309;25461;-87
2022/11/10 04:46:24;;;;;;;54.00;48.90;;;;;;;6.81;100.00;98170.82;102455;1315;22478;-87
2022/11/10 04:49:11;;;;;;;;;;;;;;;6.82;100.00;98174.00;102711;1318;22519;-85
2022/11/10 04:51:57;;;;;;;52.10;47.00;;;;;;;6.86;100.00;98180.95;102814;1315;22564;-85
2022/11/10 04:54:44;;;;;;;49.60;44.90;;;;;;;6.91;100.00;98181.16;102995;1315;22764;-84
2022/11/10 04:57:31;;;;;;;55.80;50.10;;;;;;;6.95;100.00;98190.11;102926;1317;22701;-85
2022/11/10 05:00:18;;;;;;;54.00;49.10;;;;;;;6.99;100.00;98195.58;102945;1299;25316;-84
2022/11/10 05:03:07;;;;;;;56.80;50.90;;;;;;;7.02;100.00;98198.27;103028;1316;22507;-85
2022/11/10 05:05:54;;;;;;;53.50;48.00;;;;;;;7.02;100.00;98195.58;103714;1316;22588;-86
2022/11/10 05:08:42;;;;;;;50.60;45.30;;;;;;;7.06;100.00;98191.68;103344;1302;24411;-84
2022/11/10 05:11:28;;;;;;;53.70;48.10;;;;;;;7.12;100.00;98196.28;102566;1315;22596;-85
2022/11/10 05:14:15;;;;;;;54.20;48.70;;;;;;;7.16;100.00;98202.49;102682;1318;25428;-86
2022/11/10 05:17:01;;;;;;;55.70;49.90;;;;;;;7.18;100.00;98203.84;102885;1303;25332;-86
2022/11/10 05:19:48;;;;;;;51.00;44.40;;;;;;;7.21;100.00;98208.82;102762;1315;23884;-85
2022/11/10 05:22:35;;;;;;;50.80;45.50;;;;;;;7.25;100.00;98204.90;102787;1309;26613;-85
2022/11/10 05:25:22;;;;;;;48.50;42.70;;;;;;;7.32;100.00;98203.77;102947;1299;26666;-86
2022/11/10 05:28:10;;;;;;;49.50;44.40;;;;;;;7.37;100.00;98209.13;103311;1315;24695;-87
2022/11/10 05:30:57;;;;;;;56.70;49.50;;;;;;;7.39;100.00;98213.37;102898;1315;22547;-85
2022/11/10 05:33:44;;;;;;;49.70;44.40;;;;;;;7.39;100.00;98219.00;102644;1315;22589;-86
2022/11/10 05:36:30;;;;;;;55.60;48.40;;;;;;;7.40;100.00;98224.89;102378;1315;22560;-85
2022/11/10 05:39:17;;;;;;;53.80;45.00;;;;;;;7.43;100.00;98226.48;102668;1315;26658;-86
2022/11/10 05:42:04;;;;;;;53.70;47.70;;;;;;;7.45;100.00;98229.33;102772;1304;24321;-86
2022/11/10 05:44:51;;;;;;;56.90;48.90;;;;;;;7.46;100.00;98230.56;102713;1307;23999;-86
2022/11/10 05:47:38;;;;;;;51.00;44.70;;;;;;;7.50;100.00;98241.50;102754;1303;25010;-86
2022/11/10 05:50:25;;;;;;;46.30;41.70;;;;;;;7.51;100.00;98245.04;103136;1316;22519;-87
2022/11/10 05:53:12;;;;;;;50.50;45.20;;;;;;;7.54;100.00;98251.31;102898;1305;24295;-85
2022/11/10 05:55:58;;;;;;;56.00;49.90;;;;;;;7.54;100.00;98260.70;103276;1308;22556;-85
2022/11/10 05:58:45;;;;;;;68.80;57.10;;;;;;;7.56;100.00;98259.55;103762;1315;25392;-86
2022/11/10 06:01:32;;;;;;;77.50;58.30;;;;;;;7.56;100.00;98267.39;103674;1315;22562;-86
2022/11/10 06:04:18;;;;;;;53.40;46.20;;;;;;;7.56;100.00;98272.66;102993;1299;22495;-84
2022/11/10 06:07:06;;;;;;;59.90;50.60;;;;;;;7.58;100.00;98277.15;102870;1300;22523;-85
2022/11/10 06:09:53;;;;;;;49.60;44.60;;;;;;;7.62;100.00;98282.36;102907;1302;22693;-86
2022/11/10 06:12:40;;;;;;;55.40;49.40;;;;;;;7.63;100.00;98283.74;103109;1300;25602;-84
2022/11/10 06:15:27;;;;;;;57.50;51.70;;;;;;;7.63;100.00;98289.12;103042;1315;25393;-87
2022/11/10 06:18:14;;;;;;;54.90;49.50;;;;;;;7.62;100.00;98297.81;102820;1295;22507;-84
2022/11/10 06:21:00;;;;;;;48.40;43.40;;;;;;;7.64;100.00;98306.98;102847;1315;22632;-82
2022/11/10 06:23:47;;;;;;;50.70;45.80;;;;;;;7.66;100.00;98314.21;102546;1301;22557;-83
2022/11/10 06:26:33;;;;;;;55.10;49.50;;;;;;;7.68;100.00;98314.97;102862;1294;23305;-85
2022/11/10 06:29:20;;;;;;;55.20;49.50;;;;;;;7.69;100.00;98321.35;103013;1315;22686;-81
2022/11/10 06:32:12;;;;;;;57.10;51.20;;;;;;;7.71;100.00;98328.05;102366;1320;22554;-85
2022/11/10 06:34:59;;;;;;;53.80;48.60;;;;;;;7.72;100.00;98329.88;102601;1316;24421;-84
2022/11/10 06:37:59;;;;;;;52.00;46.90;;;;;;;7.73;100.00;98329.50;102964;1300;22494;-85
2022/11/10 06:40:46;;;;;;;60.10;53.90;;;;;;;7.76;100.00;98332.55;103080;1315;22629;-91
2022/11/10 06:43:33;;;;;;;62.80;56.20;;;;;;;7.79;100.00;98338.30;103147;1315;24264;-90
2022/11/10 06:46:19;;;;;;;60.20;54.10;;;;;;;7.80;100.00;98343.66;103279;1310;22589;-87
2022/11/10 06:49:05;;;;;;;58.90;53.10;;;;;;;7.80;100.00;98346.88;103862;1293;26660;-87
2022/11/10 06:51:52;;;;;;;50.40;45.40;;;;;;;7.81;100.00;98350.09;103472;1299;22491;-87
2022/11/10 06:54:38;;;;;;;54.10;48.80;;;;;;;7.85;100.00;98356.44;103460;1313;22616;-87
2022/11/10 06:57:25;;;;;;;53.50;48.10;;;;;;;7.87;100.00;98361.36;103038;1300;24394;-85
2022/11/10 07:00:14;;;;;;;51.80;46.50;;;;;;;7.88;100.00;98364.27;102736;1300;22876;-87
2022/11/10 07:03:02;;;;;;;48.20;43.30;;;;;;;7.89;100.00;98371.02;103241;1300;22577;-88
2022/11/10 07:05:49;;;;;;;54.30;48.60;;;;;;;7.92;100.00;98372.09;102875;1300;22606;-91
2022/11/10 07:08:36;;;;;;;58.10;52.30;;;;;;;7.95;100.00;98373.05;103096;1302;25995;-90
2022/11/10 07:11:22;;;;;;;61.60;55.20;;;;;;;7.97;100.00;98373.16;103751;1315;22487;-85
2022/11/10 07:14:09;;;;;;;71.30;61.50;;;;;;;7.97;100.00;98371.75;103339;1296;22490;-87
2022/11/10 07:16:56;;;;;;;65.00;58.20;;;;;;;7.98;100.00;98383.20;103268;1315;25529;-89
2022/11/10 07:19:42;;;;;;;60.10;54.20;;;;;;;8.01;100.00;98386.90;102982;1314;23050;-90
2022/11/10 07:22:29;;;;;;;55.70;50.10;;;;;;;8.03;100.00;98387.32;102805;1315;24265;-90
2022/11/10 07:25:15;;;;;;;61.20;54.90;;;;;;;8.06;100.00;98390.39;102886;1315;25687;-87
2022/11/10 07:28:04;;;;;;;65.90;59.00;;;;;;;8.04;100.00;98393.82;103136;1302;25400;-91
2022/11/10 07:30:51;;;;;;;59.70;54.00;;;;;;;8.04;100.00;98397.63;102898;1315;22622;-87
2022/11/10 07:33:37;;;;;;;59.00;53.10;;;;;;;8.06;100.00;98399.86;102937;1303;25697;-87
2022/11/10 07:36:27;;;;;;;59.80;53.70;;;;;;;8.08;100.00;98402.19;102865;1300;22854;-90
2022/11/10 07:39:14;;;;;;;59.40;53.20;;;;;;;8.12;100.00;98409.16;103085;1309;22483;-86
2022/11/10 07:42:00;;;;;;;64.30;57.90;;;;;;;8.14;100.00;98411.84;103251;1315;22545;-87
2022/11/10 07:44:47;;;;;;;67.50;60.60;;;;;;;8.15;100.00;98412.86;103214;1315;22847;-89
2022/11/10 07:47:34;;;;;;;64.40;57.70;;;;;;;8.14;100.00;98416.73;103349;1315;22491;-87
2022/11/10 07:50:21;;;;;;;59.70;53.60;;;;;;;8.16;100.00;98422.36;103194;1303;24215;-90
2022/11/10 07:53:10;;;;;;;57.20;51.50;;;;;;;8.20;100.00;98426.71;103047;1315;24379;-88
2022/11/10 07:55:57;;;;;;;57.20;51.50;;;;;;;8.23;100.00;98433.58;103281;1315;22648;-86
2022/11/10 07:58:46;;;;;;;52.80;47.30;;;;;;;8.21;100.00;98435.45;103439;1315;22583;-85
2022/11/10 08:01:33;;;;;;;56.00;50.20;;;;;;;8.22;100.00;98435.36;103263;1315;25931;-89
2022/11/10 08:04:20;;;;;;;52.20;46.70;;;;;;;8.21;100.00;98442.23;103418;1309;22509;-84
2022/11/10 08:07:06;;;;;;;54.40;48.80;;;;;;;8.23;100.00;98442.48;103466;1315;24370;-88
2022/11/10 08:09:53;;;;;;;56.60;50.80;;;;;;;8.23;100.00;98440.61;103298;1315;22613;-88
2022/11/10 08:12:40;;;;;;;54.10;48.40;;;;;;;8.24;100.00;98443.20;103164;1315;22485;-85
2022/11/10 08:15:29;;;;;;;56.80;51.00;;;;;;;8.25;100.00;98444.22;103378;1315;22624;-88
2022/11/10 08:18:21;;;;;;;60.20;54.00;;;;;;;8.30;100.00;98438.03;102668;1296;24393;-85
2022/11/10 08:21:08;;;;;;;63.30;57.00;;;;;;;8.34;100.00;98437.16;103162;1315;22964;-86
2022/11/10 08:23:54;;;;;;;69.60;62.20;;;;;;;8.40;100.00;98451.74;102529;1315;22514;-86
2022/11/10 08:26:41;;;;;;;77.60;62.80;;;;;;;8.41;100.00;98467.95;102901;1312;22619;-88
2022/11/10 08:29:28;;;;;;;62.10;55.50;;;;;;;8.39;100.00;98470.92;102509;1318;22492;-89
2022/11/10 08:32:14;;;;;;;86.70;60.30;;;;;;;8.40;100.00;98474.56;103011;1315;24362;-86
2022/11/10 08:35:01;;;;;;;59.70;53.40;;;;;;;8.41;100.00;98481.27;103407;1315;22503;-89
2022/11/10 08:37:49;;;;;;;58.20;52.30;;;;;;;8.40;100.00;98486.44;103804;1296;22489;-91
2022/11/10 08:40:36;;;;;;;58.20;52.00;;;;;;;8.39;100.00;98494.60;105093;1314;22510;-86
2022/11/10 08:43:23;;;;;;;57.70;51.50;;;;;;;8.39;100.00;98494.86;104645;1308;22560;-91
2022/11/10 08:46:10;;;;;;;59.40;53.40;;;;;;;8.39;100.00;98499.05;104109;1315;22658;-88
2022/11/10 08:48:57;;;;;;;63.50;56.80;;;;;;;8.39;100.00;98497.98;102972;1309;22506;-89
2022/11/10 08:51:44;;;;;;;60.40;54.40;;;;;;;8.40;100.00;98498.41;104187;1313;22543;-92
2022/11/10 08:54:30;;;;;;;58.90;52.90;;;;;;;8.43;100.00;98501.47;104912;1315;22533;-89
2022/11/10 08:57:17;;;;;;;60.30;54.20;;;;;;;8.45;100.00;98501.52;103618;1317;25567;-89
2022/11/10 09:00:04;;;;;;;60.10;53.20;;;;;;;8.44;100.00;98507.10;103409;1318;22567;-90
2022/11/10 09:02:51;;;;;;;57.40;51.50;;;;;;;8.46;100.00;98513.56;103327;1317;24432;-91
2022/11/10 09:05:39;;;;;;;55.20;49.50;;;;;;;8.50;100.00;98516.35;104140;1317;25365;-88
2022/11/10 09:08:25;;;;;;;52.40;46.20;;;;;;;8.53;100.00;98520.17;103535;1293;23304;-88
2022/11/10 09:11:12;;;;;;;54.50;48.80;;;;;;;8.57;100.00;98526.23;104125;1315;22580;-91
2022/11/10 09:13:58;;;;;;;59.80;53.60;;;;;;;8.60;100.00;98530.04;103824;1315;22488;-90
2022/11/10 09:16:45;;;;;;;55.40;49.90;;;;;;;8.65;100.00;98528.21;103402;1318;24051;-91
2022/11/10 09:19:32;;;;;;;57.80;52.00;;;;;;;8.66;100.00;98528.05;102844;1306;24058;-89
2022/11/10 09:22:18;;;;;;;59.30;52.80;;;;;;;8.66;100.00;98526.77;103308;1303;27060;-87
2022/11/10 09:25:05;;;;;;;57.30;51.20;;;;;;;8.66;100.00;98531.44;104581;1315;22575;-86
2022/11/10 09:27:52;;;;;;;57.70;51.80;;;;;;;8.68;100.00;98536.59;103965;1310;24175;-91
2022/11/10 09:30:39;;;;;;;61.80;55.50;;;;;;;8.68;100.00;98546.05;103009;1293;22487;-88
2022/11/10 09:33:25;;;;;;;59.00;53.20;;;;;;;8.67;100.00;98543.84;103876;1310;22493;-88
2022/11/10 09:36:12;;;;;;;60.40;54.40;;;;;;;8.69;100.00;98544.65;104492;1315;22573;-91
2022/11/10 09:38:58;;;;;;;56.10;50.60;;;;;;;8.71;100.00;98546.64;104901;1315;25772;-90
2022/11/10 09:41:46;;;;;;;59.90;54.10;;;;;;;8.75;100.00;98552.00;104834;1293;22450;-91
2022/11/10 09:44:45;;;;;;;60.80;54.80;;;;;;;8.78;100.00;98554.36;105291;1292;24265;-93
2022/11/10 09:47:50;;;;;;;60.80;54.70;;;;;;;8.80;100.00;98556.94;104983;1315;22576;-92
2022/11/10 09:50:49;;;;;;;58.10;52.20;;;;;;;8.81;100.00;98559.67;103092;1303;22486;-86
2022/11/10 09:53:41;;;;;;;60.00;54.10;;;;;;;8.84;100.00;98565.48;102948;1306;22690;-89
2022/11/10 09:56:33;;;;;;;57.90;52.30;;;;;;;8.86;100.00;98566.23;103100;1303;22484;-90
2022/11/10 09:59:26;;;;;;;62.20;55.90;;;;;;;8.85;100.00;98566.61;103275;1315;24395;-88
2022/11/10 10:02:18;;;;;;;57.90;52.10;;;;;;;8.81;100.00;98571.18;102993;1295;22493;-86
2022/11/10 10:05:30;;;;;;;60.10;53.70;;;;;;;8.80;100.00;98569.84;103456;1300;25698;-86
2022/11/10 10:08:46;;;;;;;63.70;57.20;;;;;;;8.81;100.00;98576.88;103704;1302;22749;-91
2022/11/10 10:11:52;;;;;;;60.70;54.30;;;;;;;8.85;100.00;98579.99;104309;1324;22448;-87
2022/11/10 10:14:38;;;;;;;;;;;;;;;8.85;100.00;98586.83;104657;1324;22798;-91
2022/11/10 10:17:43;;;;;;;64.90;56.90;;;;;;;8.83;100.00;98592.64;104390;1308;22625;-88
2022/11/10 10:20:39;;;;;;;59.50;53.50;;;;;;;8.84;100.00;98591.80;104588;1299;22471;-91
2022/11/10 10:23:36;;;;;;;60.60;54.10;;;;;;;8.84;100.00;98592.29;104502;1324;22756;-89
2022/11/10 10:26:51;;;;;;;63.70;56.80;;;;;;;8.87;100.00;98599.44;104456;1316;23655;-93
2022/11/10 10:29:48;;;;;;;64.80;58.30;;;;;;;8.90;100.00;98602.19;105180;1287;22511;-86
2022/11/10 10:32:34;;;;;;;62.30;55.10;;;;;;;8.93;100.00;98599.65;104413;1300;24375;-90
2022/11/10 10:35:21;;;;;;;63.20;56.80;;;;;;;8.93;100.00;98598.84;105704;1315;22430;-93
2022/11/10 10:38:35;;;;;;;68.00;61.10;;;;;;;8.96;100.00;98601.27;104745;1278;25344;-89
2022/11/10 10:41:23;;;;;;;67.10;60.10;;;;;;;8.96;100.00;98603.80;103608;1316;22500;-89
2022/11/10 10:44:13;;;;;;;63.20;56.90;;;;;;;8.98;100.00;98607.45;104995;1315;22607;-88
2022/11/10 10:47:01;;;;;;;67.40;60.40;;;;;;;9.00;100.00;98609.98;103174;1300;22519;-89
2022/11/10 10:49:48;;;;;;;61.90;55.50;;;;;;;9.00;100.00;98614.60;103272;1315;22494;-90
2022/11/10 10:52:35;;;;;;;61.90;55.20;;;;;;;9.00;100.00;98619.16;105115;1299;24447;-91
2022/11/10 10:55:29;;;;;;;62.50;54.50;;;;;;;9.02;100.00;98615.40;105856;1282;22534;-81
2022/11/10 10:58:28;;;;;;;61.60;55.10;;;;;;;9.06;100.00;98615.77;105765;1315;22579;-88
2022/11/10 11:01:19;;;;;;;59.40;53.20;;;;;;;9.12;100.00;98616.30;106216;1286;25353;-86
2022/11/10 11:04:29;;;;;;;61.40;54.90;;;;;;;9.15;100.00;98622.16;105550;1285;24220;-89
2022/11/10 11:07:22;;;;;;;58.80;52.80;;;;;;;9.13;100.00;98623.08;103731;1315;25227;-87
2022/11/10 11:10:22;;;;;;;58.00;52.00;;;;;;;9.13;100.00;98621.08;106200;1284;22315;31
2022/11/10 11:13:13;;;;;;;62.20;53.70;;;;;;;9.18;100.00;98624.64;103591;1318;22588;-88
2022/11/10 11:16:02;;;;;;;59.80;53.70;;;;;;;9.22;100.00;98622.73;102321;1318;22531;-84
2022/11/10 11:18:49;;;;;;;61.00;54.30;;;;;;;9.27;100.00;98626.11;102852;1318;24392;-90
2022/11/10 11:22:21;;;;;;;60.40;54.20;;;;;;;9.31;100.00;98618.46;103308;1318;23357;-90
2022/11/10 11:25:26;;;;;;;59.30;52.90;;;;;;;9.38;100.00;98629.26;104037;1317;22623;-91
2022/11/10 11:28:35;;;;;;;60.00;53.40;;;;;;;9.39;100.00;98630.45;104428;1298;22506;-93
2022/11/10 11:31:40;;;;;;;59.80;53.50;;;;;;;9.45;100.00;98630.75;105110;1282;24230;-91
2022/11/10 11:34:44;;;;;;;58.40;52.40;;;;;;;9.52;100.00;98631.28;105019;1305;24088;-90
2022/11/10 11:37:58;;;;;;;61.30;55.00;;;;;;;9.57;100.00;98635.08;103803;1302;22559;-90
2022/11/10 11:41:12;;;;;;;64.10;56.30;;;;;;;9.62;100.00;98644.65;104163;1314;22603;-90
2022/11/10 11:44:13;;;;;;;59.50;52.10;;;;;;;9.64;100.00;98653.78;104389;1300;25274;-92
2022/11/10 11:47:41;;;;;;;57.30;50.90;;;;;;;9.62;100.00;98652.77;106958;1285;22444;-90
2022/11/10 11:50:36;;;;;;;54.60;48.90;;;;;;;9.67;100.00;98650.06;105882;1284;22515;-84
2022/11/10 11:54:20;;;;;;;56.60;50.60;;;;;;;9.75;100.00;98645.34;107749;1275;22284;31
2022/11/10 11:57:26;;;;;;;54.30;48.50;;;;;;;9.88;100.00;98651.44;107289;1283;22337;31
2022/11/10 12:00:18;;;;;;;55.10;49.20;;;;;;;9.98;100.00;98647.08;105888;1277;22558;-92
2022/11/10 12:03:24;;;;;;;55.80;49.40;;;;;;;10.04;100.00;98644.38;103934;1307;22445;-89
2022/11/10 12:06:29;;;;;;;52.30;46.80;;;;;;;10.14;100.00;98648.15;104469;1315;22741;-91
2022/11/10 12:10:09;;;;;;;49.90;44.70;;;;;;;10.25;100.00;98649.55;105508;1274;22017;31
2022/11/10 12:13:05;;;;;;;52.90;47.20;;;;;;;10.28;100.00;98653.98;104368;1278;22488;-87
2022/11/10 12:16:06;;;;;;;52.30;46.80;;;;;;;10.34;100.00;98664.34;105872;1286;22546;-92
2022/11/10 12:18:56;;;;;;;51.10;45.80;;;;;;;10.35;100.00;98667.45;104386;1315;25296;-93
2022/11/10 12:21:50;;;;;;;50.50;45.20;;;;;;;10.36;100.00;98668.80;104089;1299;22762;-86
2022/11/10 12:24:50;;;;;;;58.10;51.00;;;;;;;10.35;100.00;98668.11;102940;1293;22487;-89
2022/11/10 12:27:42;;;;;;;54.90;49.00;;;;;;;10.36;100.00;98666.60;102963;1293;24315;-88
2022/11/10 12:30:30;;;;;;;55.30;48.30;;;;;;;10.39;100.00;98666.30;103160;1292;22529;-87
2022/11/10 12:33:39;;;;;;;51.10;45.80;;;;;;;10.44;100.00;98664.02;103048;1293;22528;-89
2022/11/10 12:36:29;;;;;;;55.30;48.50;;;;;;;10.45;100.00;98668.37;102920;1315;24368;-86
2022/11/10 12:39:22;;;;;;;52.50;45.90;;;;;;;10.44;100.00;98673.06;103051;1299;26511;-92
2022/11/10 12:42:21;;;;;;;47.90;42.50;;;;;;;10.41;100.00;98672.55;103173;1315;23365;-89
2022/11/10 12:45:23;;;;;;;47.70;40.60;;;;;;;10.39;100.00;98670.89;102971;1296;23142;-87
2022/11/10 12:48:14;;;;;;;45.20;40.60;;;;;;;10.39;100.00;98671.31;103014;1293;22672;-85
2022/11/10 12:51:09;;;;;;;46.70;41.70;;;;;;;10.37;100.00;98675.84;103115;1315;25698;-86
2022/11/10 12:53:55;;;;;;;45.20;40.30;;;;;;;10.37;100.00;98679.73;104245;1315;22730;-85
2022/11/10 12:57:03;;;;;;;43.70;39.10;;;;;;;10.54;100.00;98680.70;103115;1315;23787;-90
2022/11/10 12:59:58;;;;;;;43.40;39.30;;;;;;;11.33;100.00;98680.30;102948;1315;22494;-88
2022/11/10 13:02:46;;;;;;;41.00;37.00;;;;;;;12.18;100.00;98686.48;103036;1312;22538;-86
2022/11/10 13:05:41;;;;;;;42.10;37.20;;;;;;;12.96;99.84;98689.77;102528;1315;22498;-89